createdAt,value
2017-03-30T00:00:07.920Z,0
2017-03-30T00:00:48.571Z,0
2017-03-30T00:01:29.225Z,0
2017-03-30T00:02:10.909Z,0
2017-03-30T00:02:51.550Z,0
2017-03-30T00:03:32.245Z,0
2017-03-30T00:04:12.814Z,0
2017-03-30T00:04:53.408Z,0
2017-03-30T00:05:34.071Z,0
2017-03-30T00:06:14.749Z,0
2017-03-30T00:06:55.325Z,0
2017-03-30T00:07:35.925Z,0
2017-03-30T00:08:16.570Z,0
2017-03-30T00:08:57.260Z,0
2017-03-30T00:09:37.834Z,0
2017-03-30T00:10:18.443Z,0
2017-03-30T00:10:59.074Z,0
2017-03-30T00:11:39.771Z,0
2017-03-30T00:12:20.346Z,0
2017-03-30T00:13:00.935Z,0
2017-03-30T00:13:42.628Z,0
2017-03-30T00:14:23.262Z,0
2017-03-30T00:15:04.962Z,0
2017-03-30T00:15:45.599Z,0
2017-03-30T00:16:26.234Z,0
2017-03-30T00:17:06.913Z,0
2017-03-30T00:17:47.550Z,0
2017-03-30T00:18:28.243Z,0
2017-03-30T00:19:08.794Z,0
2017-03-30T00:19:49.427Z,0
2017-03-30T00:20:30.079Z,0
2017-03-30T00:21:10.753Z,0
2017-03-30T00:21:51.314Z,0
2017-03-30T00:22:31.928Z,0
2017-03-30T00:23:12.566Z,0
2017-03-30T00:23:53.244Z,0
2017-03-30T00:24:33.880Z,0
2017-03-30T00:25:14.546Z,0
2017-03-30T00:25:55.198Z,0
2017-03-30T00:26:35.824Z,0
2017-03-30T00:27:16.511Z,0
2017-03-30T00:27:57.140Z,0
2017-03-30T00:28:37.802Z,0
2017-03-30T00:29:18.452Z,0
2017-03-30T00:29:59.212Z,0
2017-03-30T00:30:39.857Z,0
2017-03-30T00:31:20.509Z,0
2017-03-30T00:32:01.175Z,0
2017-03-30T00:32:41.816Z,0
2017-03-30T00:33:22.467Z,0
2017-03-30T00:34:03.115Z,0
2017-03-30T00:34:43.773Z,0
2017-03-30T00:35:24.429Z,0
2017-03-30T00:36:05.080Z,0
2017-03-30T00:36:45.741Z,0
2017-03-30T00:37:26.386Z,0
2017-03-30T00:38:07.080Z,0
2017-03-30T00:38:47.643Z,0
2017-03-30T00:39:28.250Z,0
2017-03-30T00:40:08.818Z,0
2017-03-30T00:40:49.487Z,0
2017-03-30T00:41:30.044Z,0
2017-03-30T00:42:10.661Z,0
2017-03-30T00:42:51.304Z,0
2017-03-30T00:43:31.956Z,0
2017-03-30T00:44:12.613Z,0
2017-03-30T00:44:53.259Z,0
2017-03-30T00:45:33.920Z,0
2017-03-30T00:46:14.569Z,0
2017-03-30T00:46:55.234Z,0
2017-03-30T00:47:35.886Z,0
2017-03-30T00:48:16.538Z,0
2017-03-30T00:48:57.190Z,0
2017-03-30T00:49:37.837Z,0
2017-03-30T00:50:18.492Z,0
2017-03-30T00:50:59.137Z,0
2017-03-30T00:51:39.790Z,0
2017-03-30T00:52:20.443Z,0
2017-03-30T00:53:01.053Z,0
2017-03-30T00:53:41.666Z,0
2017-03-30T00:54:22.301Z,0
2017-03-30T00:55:02.892Z,0
2017-03-30T00:55:43.523Z,0
2017-03-30T00:56:24.156Z,0
2017-03-30T00:57:04.745Z,0
2017-03-30T00:57:45.368Z,0
2017-03-30T00:58:26.035Z,0
2017-03-30T00:59:06.690Z,0
2017-03-30T00:59:47.328Z,0
2017-03-30T01:00:27.970Z,0
2017-03-30T01:01:08.653Z,0
2017-03-30T01:01:49.286Z,0
2017-03-30T01:02:29.940Z,0
2017-03-30T01:03:10.638Z,0
2017-03-30T01:03:51.245Z,0
2017-03-30T01:04:31.888Z,0
2017-03-30T01:05:12.564Z,0
2017-03-30T01:05:53.217Z,0
2017-03-30T01:06:33.854Z,0
2017-03-30T01:07:16.456Z,0
2017-03-30T01:07:57.090Z,0
2017-03-30T01:08:38.775Z,0
2017-03-30T01:09:19.472Z,0
2017-03-30T01:10:00.036Z,0
2017-03-30T01:10:41.691Z,0
2017-03-30T01:11:22.334Z,0
2017-03-30T01:12:03.006Z,0
2017-03-30T01:12:43.561Z,0
2017-03-30T01:13:24.169Z,0
2017-03-30T01:14:04.831Z,0
2017-03-30T01:14:45.516Z,0
2017-03-30T01:15:26.097Z,0
2017-03-30T01:16:06.699Z,0
2017-03-30T01:16:49.383Z,0
2017-03-30T01:17:30.068Z,0
2017-03-30T01:18:11.139Z,0
2017-03-30T01:18:51.793Z,0
2017-03-30T01:19:32.443Z,0
2017-03-30T01:20:13.097Z,0
2017-03-30T01:20:53.745Z,0
2017-03-30T01:21:34.394Z,0
2017-03-30T01:22:15.052Z,0
2017-03-30T01:22:56.631Z,0
2017-03-30T01:23:37.283Z,0
2017-03-30T01:24:17.927Z,0
2017-03-30T01:24:58.586Z,0
2017-03-30T01:25:39.233Z,0
2017-03-30T01:26:19.892Z,0
2017-03-30T01:27:00.547Z,0
2017-03-30T01:27:41.100Z,0
2017-03-30T01:28:21.710Z,0
2017-03-30T01:29:02.287Z,0
2017-03-30T01:29:42.926Z,0
2017-03-30T01:30:23.558Z,0
2017-03-30T01:31:04.139Z,0
2017-03-30T01:31:44.782Z,0
2017-03-30T01:32:25.423Z,0
2017-03-30T01:33:06.001Z,0
2017-03-30T01:33:46.642Z,0
2017-03-30T01:34:27.282Z,0
2017-03-30T01:35:07.874Z,0
2017-03-30T01:35:48.424Z,0
2017-03-30T01:36:29.045Z,0
2017-03-30T01:37:09.683Z,0
2017-03-30T01:37:50.284Z,0
2017-03-30T01:38:30.856Z,0
2017-03-30T01:39:11.554Z,0
2017-03-30T01:39:52.206Z,0
2017-03-30T01:40:32.787Z,0
2017-03-30T01:41:13.362Z,0
2017-03-30T01:41:53.966Z,0
2017-03-30T01:42:34.614Z,0
2017-03-30T01:43:15.266Z,0
2017-03-30T01:43:55.917Z,0
2017-03-30T01:44:36.552Z,0
2017-03-30T01:45:17.226Z,0
2017-03-30T01:45:57.878Z,0
2017-03-30T01:46:38.532Z,0
2017-03-30T01:47:19.182Z,0
2017-03-30T01:47:59.772Z,0
2017-03-30T01:48:40.379Z,0
2017-03-30T01:49:21.062Z,0
2017-03-30T01:50:01.697Z,0
2017-03-30T01:50:43.302Z,0
2017-03-30T01:51:23.871Z,0
2017-03-30T01:52:04.476Z,0
2017-03-30T01:52:45.123Z,0
2017-03-30T01:53:25.689Z,0
2017-03-30T01:54:06.337Z,0
2017-03-30T01:54:47.012Z,0
2017-03-30T01:55:27.561Z,0
2017-03-30T01:56:08.184Z,0
2017-03-30T01:56:48.842Z,0
2017-03-30T01:57:29.416Z,0
2017-03-30T01:58:10.044Z,0
2017-03-30T01:58:50.695Z,0
2017-03-30T01:59:31.354Z,0
2017-03-30T02:00:11.996Z,0
2017-03-30T02:00:52.687Z,0
2017-03-30T02:01:33.306Z,0
2017-03-30T02:02:13.962Z,0
2017-03-30T02:02:54.610Z,0
2017-03-30T02:03:35.263Z,0
2017-03-30T02:04:15.922Z,0
2017-03-30T02:04:56.572Z,0
2017-03-30T02:05:37.223Z,0
2017-03-30T02:06:17.878Z,0
2017-03-30T02:06:58.531Z,0
2017-03-30T02:07:39.167Z,0
2017-03-30T02:08:20.801Z,0
2017-03-30T02:09:01.354Z,0
2017-03-30T02:09:41.965Z,0
2017-03-30T02:10:22.608Z,0
2017-03-30T02:11:03.302Z,0
2017-03-30T02:11:43.862Z,0
2017-03-30T02:12:24.473Z,0
2017-03-30T02:13:05.122Z,0
2017-03-30T02:13:47.036Z,0
2017-03-30T02:14:28.680Z,0
2017-03-30T02:15:09.338Z,0
2017-03-30T02:15:49.915Z,0
2017-03-30T02:16:30.542Z,0
2017-03-30T02:17:11.186Z,0
2017-03-30T02:17:51.772Z,0
2017-03-30T02:18:32.389Z,0
2017-03-30T02:19:13.097Z,0
2017-03-30T02:19:53.717Z,0
2017-03-30T02:20:34.360Z,0
2017-03-30T02:21:15.004Z,0
2017-03-30T02:21:55.576Z,0
2017-03-30T02:22:37.249Z,0
2017-03-30T02:23:17.890Z,0
2017-03-30T02:23:58.538Z,0
2017-03-30T02:24:39.186Z,0
2017-03-30T02:25:19.844Z,0
2017-03-30T02:26:00.500Z,0
2017-03-30T02:26:41.163Z,0
2017-03-30T02:27:21.805Z,0
2017-03-30T02:28:02.459Z,0
2017-03-30T02:28:43.116Z,0
2017-03-30T02:29:23.763Z,0
2017-03-30T02:30:04.417Z,0
2017-03-30T02:30:45.069Z,0
2017-03-30T02:31:25.720Z,0
2017-03-30T02:32:06.375Z,0
2017-03-30T02:32:47.018Z,0
2017-03-30T02:33:27.580Z,0
2017-03-30T02:34:08.235Z,0
2017-03-30T02:34:48.866Z,0
2017-03-30T02:35:29.445Z,0
2017-03-30T02:36:10.087Z,0
2017-03-30T02:36:50.730Z,0
2017-03-30T02:37:31.296Z,0
2017-03-30T02:38:11.926Z,0
2017-03-30T02:38:52.587Z,0
2017-03-30T02:39:33.238Z,0
2017-03-30T02:40:13.892Z,0
2017-03-30T02:40:54.549Z,0
2017-03-30T02:41:35.197Z,0
2017-03-30T02:42:15.850Z,0
2017-03-30T02:42:56.451Z,0
2017-03-30T02:43:37.002Z,0
2017-03-30T02:44:17.608Z,0
2017-03-30T02:44:58.263Z,0
2017-03-30T02:45:38.980Z,0
2017-03-30T02:46:19.554Z,0
2017-03-30T02:47:00.218Z,0
2017-03-30T02:47:40.867Z,0
2017-03-30T02:48:21.513Z,0
2017-03-30T02:49:02.177Z,0
2017-03-30T02:49:42.831Z,0
2017-03-30T02:50:23.485Z,0
2017-03-30T02:51:04.143Z,0
2017-03-30T02:51:44.792Z,0
2017-03-30T02:52:25.451Z,0
2017-03-30T02:53:06.013Z,0
2017-03-30T02:53:46.657Z,0
2017-03-30T02:54:27.304Z,0
2017-03-30T02:55:07.866Z,0
2017-03-30T02:55:48.507Z,0
2017-03-30T02:56:29.146Z,0
2017-03-30T02:57:09.739Z,0
2017-03-30T02:57:50.360Z,0
2017-03-30T02:58:31.014Z,0
2017-03-30T02:59:11.670Z,0
2017-03-30T02:59:52.315Z,0
2017-03-30T03:00:32.996Z,0
2017-03-30T03:01:13.626Z,0
2017-03-30T03:01:54.272Z,0
2017-03-30T03:02:34.931Z,0
2017-03-30T03:03:15.582Z,0
2017-03-30T03:03:56.234Z,0
2017-03-30T03:04:36.888Z,0
2017-03-30T03:05:17.545Z,0
2017-03-30T03:05:58.214Z,0
2017-03-30T03:06:38.851Z,0
2017-03-30T03:07:19.500Z,0
2017-03-30T03:08:00.094Z,0
2017-03-30T03:08:40.659Z,0
2017-03-30T03:09:21.258Z,0
2017-03-30T03:10:01.909Z,0
2017-03-30T03:10:42.604Z,0
2017-03-30T03:11:23.166Z,0
2017-03-30T03:12:03.761Z,0
2017-03-30T03:12:44.418Z,0
2017-03-30T03:13:25.075Z,0
2017-03-30T03:14:05.720Z,0
2017-03-30T03:14:46.377Z,0
2017-03-30T03:15:27.027Z,0
2017-03-30T03:16:07.676Z,0
2017-03-30T03:16:48.337Z,0
2017-03-30T03:17:28.988Z,0
2017-03-30T03:18:09.577Z,0
2017-03-30T03:18:50.156Z,0
2017-03-30T03:19:30.750Z,0
2017-03-30T03:20:11.392Z,0
2017-03-30T03:20:51.989Z,0
2017-03-30T03:21:32.561Z,0
2017-03-30T03:22:13.141Z,0
2017-03-30T03:22:53.799Z,0
2017-03-30T03:23:34.449Z,0
2017-03-30T03:24:15.104Z,0
2017-03-30T03:24:55.765Z,0
2017-03-30T03:25:36.412Z,0
2017-03-30T03:26:17.071Z,0
2017-03-30T03:26:57.719Z,0
2017-03-30T03:27:38.373Z,0
2017-03-30T03:28:18.962Z,0
2017-03-30T03:28:59.523Z,0
2017-03-30T03:29:40.144Z,0
2017-03-30T03:30:20.779Z,0
2017-03-30T03:31:01.369Z,0
2017-03-30T03:31:41.920Z,0
2017-03-30T03:32:22.533Z,0
2017-03-30T03:33:03.179Z,0
2017-03-30T03:33:44.717Z,0
2017-03-30T03:34:25.333Z,0
2017-03-30T03:35:06.995Z,0
2017-03-30T03:35:47.648Z,0
2017-03-30T03:36:28.312Z,0
2017-03-30T03:37:08.946Z,0
2017-03-30T03:37:49.604Z,0
2017-03-30T03:38:30.266Z,0
2017-03-30T03:39:10.901Z,0
2017-03-30T03:39:51.596Z,0
2017-03-30T03:40:32.476Z,0
2017-03-30T03:41:13.078Z,0
2017-03-30T03:41:53.742Z,0
2017-03-30T03:42:34.378Z,0
2017-03-30T03:43:15.052Z,0
2017-03-30T03:43:55.690Z,0
2017-03-30T03:44:36.393Z,0
2017-03-30T03:45:16.986Z,0
2017-03-30T03:45:57.648Z,0
2017-03-30T03:46:38.294Z,0
2017-03-30T03:47:18.953Z,0
2017-03-30T03:47:59.553Z,0
2017-03-30T03:48:40.123Z,0
2017-03-30T03:49:20.726Z,0
2017-03-30T03:50:02.385Z,0
2017-03-30T03:50:43.067Z,0
2017-03-30T03:51:23.642Z,0
2017-03-30T03:52:04.349Z,0
2017-03-30T03:52:44.992Z,0
2017-03-30T03:53:25.690Z,0
2017-03-30T03:54:06.340Z,0
2017-03-30T03:54:46.985Z,0
2017-03-30T03:55:27.640Z,0
2017-03-30T03:56:08.303Z,0
2017-03-30T03:56:49.059Z,0
2017-03-30T03:57:29.809Z,0
2017-03-30T03:58:10.384Z,0
2017-03-30T03:58:51.093Z,0
2017-03-30T03:59:31.880Z,0
2017-03-30T04:00:12.626Z,0
2017-03-30T04:00:53.186Z,0
2017-03-30T04:01:33.899Z,0
2017-03-30T04:02:14.543Z,0
2017-03-30T04:02:55.237Z,0
2017-03-30T04:03:35.887Z,0
2017-03-30T04:04:16.536Z,0
2017-03-30T04:04:57.290Z,0
2017-03-30T04:05:38.047Z,0
2017-03-30T04:06:18.709Z,0
2017-03-30T04:06:59.458Z,0
2017-03-30T04:07:40.118Z,0
2017-03-30T04:08:20.831Z,0
2017-03-30T04:09:01.486Z,0
2017-03-30T04:09:42.148Z,0
2017-03-30T04:10:22.893Z,0
2017-03-30T04:11:03.654Z,0
2017-03-30T04:11:44.404Z,0
2017-03-30T04:12:25.158Z,0
2017-03-30T04:13:05.812Z,0
2017-03-30T04:13:46.567Z,0
2017-03-30T04:14:27.220Z,0
2017-03-30T04:15:07.871Z,0
2017-03-30T04:15:48.524Z,0
2017-03-30T04:16:29.183Z,0
2017-03-30T04:17:09.956Z,0
2017-03-30T04:17:50.587Z,0
2017-03-30T04:18:31.160Z,0
2017-03-30T04:19:11.901Z,0
2017-03-30T04:19:52.537Z,0
2017-03-30T04:20:33.146Z,0
2017-03-30T04:21:13.860Z,0
2017-03-30T04:21:54.503Z,0
2017-03-30T04:22:35.076Z,0
2017-03-30T04:23:16.834Z,0
2017-03-30T04:23:57.484Z,0
2017-03-30T04:24:38.075Z,0
2017-03-30T04:25:18.646Z,0
2017-03-30T04:25:59.341Z,0
2017-03-30T04:26:39.987Z,0
2017-03-30T04:27:20.588Z,0
2017-03-30T04:28:01.159Z,0
2017-03-30T04:28:41.748Z,0
2017-03-30T04:29:22.322Z,0
2017-03-30T04:30:02.933Z,0
2017-03-30T04:30:43.629Z,0
2017-03-30T04:31:24.195Z,0
2017-03-30T04:32:04.836Z,0
2017-03-30T04:32:45.459Z,0
2017-03-30T04:33:26.050Z,0
2017-03-30T04:34:06.666Z,0
2017-03-30T04:34:47.314Z,0
2017-03-30T04:35:27.972Z,0
2017-03-30T04:36:08.542Z,0
2017-03-30T04:36:49.163Z,0
2017-03-30T04:37:29.829Z,0
2017-03-30T04:38:10.478Z,0
2017-03-30T04:38:51.220Z,0
2017-03-30T04:39:31.825Z,0
2017-03-30T04:40:12.379Z,0
2017-03-30T04:40:52.987Z,0
2017-03-30T04:41:33.641Z,0
2017-03-30T04:42:15.256Z,0
2017-03-30T04:42:55.807Z,0
2017-03-30T04:43:38.402Z,0
2017-03-30T04:44:19.020Z,0
2017-03-30T04:44:59.729Z,0
2017-03-30T04:45:40.438Z,0
2017-03-30T04:46:21.081Z,0
2017-03-30T04:47:01.731Z,0
2017-03-30T04:47:42.386Z,0
2017-03-30T04:48:23.077Z,0
2017-03-30T04:49:03.691Z,0
2017-03-30T04:49:44.380Z,0
2017-03-30T04:50:24.997Z,0
2017-03-30T04:51:08.677Z,0
2017-03-30T04:51:49.777Z,0
2017-03-30T04:52:30.438Z,0
2017-03-30T04:53:11.966Z,0
2017-03-30T04:53:52.705Z,0
2017-03-30T04:54:33.275Z,0
2017-03-30T04:55:13.988Z,0
2017-03-30T04:55:54.556Z,0
2017-03-30T04:56:35.168Z,0
2017-03-30T04:57:15.817Z,0
2017-03-30T04:57:56.521Z,0
2017-03-30T04:58:37.134Z,0
2017-03-30T04:59:17.787Z,0
2017-03-30T04:59:58.371Z,0
2017-03-30T05:00:39.006Z,0
2017-03-30T05:01:19.648Z,0
2017-03-30T05:02:00.209Z,0
2017-03-30T05:02:40.828Z,0
2017-03-30T05:03:21.518Z,0
2017-03-30T05:04:02.194Z,0
2017-03-30T05:04:42.758Z,0
2017-03-30T05:05:23.358Z,0
2017-03-30T05:06:04.013Z,0
2017-03-30T05:06:44.704Z,0
2017-03-30T05:07:25.268Z,0
2017-03-30T05:08:05.881Z,0
2017-03-30T05:08:46.538Z,0
2017-03-30T05:09:27.177Z,0
2017-03-30T05:10:07.839Z,0
2017-03-30T05:10:48.464Z,0
2017-03-30T05:11:29.117Z,0
2017-03-30T05:12:09.772Z,0
2017-03-30T05:12:50.437Z,0
2017-03-30T05:13:31.077Z,0
2017-03-30T05:14:11.743Z,0
2017-03-30T05:14:52.383Z,0
2017-03-30T05:15:33.037Z,0
2017-03-30T05:16:13.689Z,0
2017-03-30T05:16:54.343Z,0
2017-03-30T05:17:35.019Z,0
2017-03-30T05:18:15.675Z,0
2017-03-30T05:18:56.316Z,5
2017-03-30T05:19:36.967Z,5
2017-03-30T05:20:18.659Z,5
2017-03-30T05:20:59.307Z,5
2017-03-30T05:21:39.937Z,5
2017-03-30T05:22:20.641Z,5
2017-03-30T05:23:01.268Z,5
2017-03-30T05:23:41.843Z,5
2017-03-30T05:24:22.457Z,5
2017-03-30T05:25:03.106Z,10
2017-03-30T05:25:43.695Z,10
2017-03-30T05:26:24.326Z,10
2017-03-30T05:27:04.960Z,10
2017-03-30T05:27:45.542Z,10
2017-03-30T05:28:26.162Z,10
2017-03-30T05:29:06.820Z,10
2017-03-30T05:29:47.486Z,10
2017-03-30T05:30:28.121Z,10
2017-03-30T05:31:08.783Z,10
2017-03-30T05:31:49.673Z,10
2017-03-30T05:32:32.018Z,15
2017-03-30T05:33:13.095Z,15
2017-03-30T05:33:54.094Z,15
2017-03-30T05:34:35.416Z,15
2017-03-30T05:35:16.098Z,15
2017-03-30T05:35:57.097Z,15
2017-03-30T05:36:37.868Z,15
2017-03-30T05:37:18.506Z,15
2017-03-30T05:37:59.078Z,15
2017-03-30T05:38:39.683Z,15
2017-03-30T05:39:20.317Z,15
2017-03-30T05:40:01.008Z,15
2017-03-30T05:40:41.657Z,15
2017-03-30T05:41:22.290Z,15
2017-03-30T05:42:02.951Z,15
2017-03-30T05:42:43.604Z,15
2017-03-30T05:43:24.267Z,20
2017-03-30T05:44:05.087Z,20
2017-03-30T05:44:45.867Z,20
2017-03-30T05:45:27.449Z,20
2017-03-30T05:46:08.112Z,20
2017-03-30T05:46:48.680Z,20
2017-03-30T05:47:29.286Z,20
2017-03-30T05:48:09.867Z,20
2017-03-30T05:48:50.471Z,20
2017-03-30T05:49:31.080Z,25
2017-03-30T05:50:11.647Z,25
2017-03-30T05:50:52.265Z,25
2017-03-30T05:51:32.899Z,25
2017-03-30T05:52:13.491Z,25
2017-03-30T05:52:54.071Z,25
2017-03-30T05:53:34.783Z,25
2017-03-30T05:54:15.396Z,30
2017-03-30T05:54:56.060Z,30
2017-03-30T05:55:36.723Z,30
2017-03-30T05:56:17.401Z,30
2017-03-30T05:56:58.028Z,30
2017-03-30T05:57:38.658Z,35
2017-03-30T05:58:19.313Z,35
2017-03-30T05:58:59.977Z,35
2017-03-30T05:59:40.662Z,35
2017-03-30T06:00:21.218Z,35
2017-03-30T06:01:01.820Z,35
2017-03-30T06:01:42.508Z,40
2017-03-30T06:02:23.176Z,40
2017-03-30T06:03:03.774Z,40
2017-03-30T06:03:44.330Z,40
2017-03-30T06:04:25.049Z,40
2017-03-30T06:05:05.655Z,45
2017-03-30T06:05:46.306Z,45
2017-03-30T06:06:26.959Z,45
2017-03-30T06:07:08.628Z,45
2017-03-30T06:07:49.294Z,45
2017-03-30T06:08:29.943Z,45
2017-03-30T06:09:16.142Z,50
2017-03-30T06:09:56.802Z,50
2017-03-30T06:10:37.423Z,50
2017-03-30T06:11:18.079Z,50
2017-03-30T06:11:58.766Z,50
2017-03-30T06:12:40.439Z,50
2017-03-30T06:13:21.167Z,50
2017-03-30T06:14:01.937Z,50
2017-03-30T06:14:42.569Z,55
2017-03-30T06:15:23.230Z,55
2017-03-30T06:16:03.895Z,55
2017-03-30T06:16:44.523Z,55
2017-03-30T06:17:25.215Z,55
2017-03-30T06:18:05.828Z,55
2017-03-30T06:18:46.458Z,55
2017-03-30T06:19:27.159Z,55
2017-03-30T06:20:08.927Z,55
2017-03-30T06:20:49.526Z,55
2017-03-30T06:21:30.141Z,60
2017-03-30T06:22:10.780Z,60
2017-03-30T06:22:51.357Z,60
2017-03-30T06:23:32.016Z,60
2017-03-30T06:24:12.658Z,60
2017-03-30T06:24:53.245Z,60
2017-03-30T06:25:34.031Z,60
2017-03-30T06:26:14.706Z,65
2017-03-30T06:26:55.273Z,65
2017-03-30T06:27:35.922Z,65
2017-03-30T06:28:16.586Z,70
2017-03-30T06:28:57.242Z,70
2017-03-30T06:29:37.840Z,70
2017-03-30T06:30:18.541Z,75
2017-03-30T06:30:59.200Z,75
2017-03-30T06:31:39.859Z,80
2017-03-30T06:32:20.455Z,80
2017-03-30T06:33:01.140Z,85
2017-03-30T06:33:41.805Z,85
2017-03-30T06:34:22.436Z,90
2017-03-30T06:35:03.214Z,90
2017-03-30T06:35:43.825Z,95
2017-03-30T06:36:24.549Z,95
2017-03-30T06:37:05.254Z,100
2017-03-30T06:37:45.944Z,100
2017-03-30T06:38:27.503Z,100
2017-03-30T06:39:08.160Z,105
2017-03-30T06:39:48.815Z,105
2017-03-30T06:40:29.471Z,105
2017-03-30T06:41:10.127Z,105
2017-03-30T06:41:51.795Z,110
2017-03-30T06:42:32.457Z,110
2017-03-30T06:43:13.095Z,110
2017-03-30T06:43:53.752Z,110
2017-03-30T06:44:34.529Z,115
2017-03-30T06:45:15.158Z,115
2017-03-30T06:45:55.828Z,115
2017-03-30T06:46:36.467Z,115
2017-03-30T06:47:17.119Z,115
2017-03-30T06:47:57.774Z,115
2017-03-30T06:48:38.414Z,120
2017-03-30T06:49:19.044Z,120
2017-03-30T06:49:59.620Z,115
2017-03-30T06:50:40.230Z,120
2017-03-30T06:51:20.930Z,115
2017-03-30T06:52:01.794Z,115
2017-03-30T06:52:42.452Z,115
2017-03-30T06:53:23.157Z,115
2017-03-30T06:54:03.741Z,115
2017-03-30T06:54:44.430Z,115
2017-03-30T06:55:25.124Z,110
2017-03-30T06:56:05.738Z,110
2017-03-30T06:56:46.316Z,110
2017-03-30T06:57:28.952Z,105
2017-03-30T06:58:09.539Z,105
2017-03-30T06:58:50.134Z,105
2017-03-30T06:59:30.748Z,105
2017-03-30T07:00:11.472Z,105
2017-03-30T07:00:53.323Z,105
2017-03-30T07:01:34.005Z,110
2017-03-30T07:02:14.626Z,110
2017-03-30T07:02:55.269Z,110
2017-03-30T07:03:35.984Z,115
2017-03-30T07:04:16.585Z,115
2017-03-30T07:04:57.260Z,120
2017-03-30T07:05:37.889Z,120
2017-03-30T07:06:18.604Z,125
2017-03-30T07:06:59.219Z,125
2017-03-30T07:07:39.847Z,130
2017-03-30T07:08:21.565Z,130
2017-03-30T07:09:02.172Z,135
2017-03-30T07:09:42.881Z,135
2017-03-30T07:10:23.470Z,140
2017-03-30T07:11:04.141Z,145
2017-03-30T07:11:44.792Z,145
2017-03-30T07:12:25.442Z,150
2017-03-30T07:13:06.118Z,155
2017-03-30T07:13:46.795Z,160
2017-03-30T07:14:27.386Z,160
2017-03-30T07:15:09.077Z,165
2017-03-30T07:15:49.740Z,170
2017-03-30T07:16:30.423Z,175
2017-03-30T07:17:11.011Z,175
2017-03-30T07:17:51.717Z,180
2017-03-30T07:18:32.423Z,180
2017-03-30T07:19:13.036Z,180
2017-03-30T07:19:53.609Z,180
2017-03-30T07:20:34.220Z,180
2017-03-30T07:21:14.883Z,180
2017-03-30T07:21:55.553Z,180
2017-03-30T07:22:36.143Z,180
2017-03-30T07:23:16.882Z,180
2017-03-30T07:23:57.487Z,175
2017-03-30T07:24:38.075Z,175
2017-03-30T07:25:18.669Z,175
2017-03-30T07:25:59.343Z,175
2017-03-30T07:26:39.950Z,175
2017-03-30T07:27:20.632Z,170
2017-03-30T07:28:01.298Z,170
2017-03-30T07:28:42.132Z,170
2017-03-30T07:29:22.767Z,170
2017-03-30T07:30:03.386Z,170
2017-03-30T07:30:43.940Z,165
2017-03-30T07:31:24.493Z,165
2017-03-30T07:32:05.091Z,165
2017-03-30T07:32:45.715Z,160
2017-03-30T07:33:28.324Z,155
2017-03-30T07:34:08.912Z,155
2017-03-30T07:34:49.494Z,150
2017-03-30T07:35:30.093Z,150
2017-03-30T07:36:11.674Z,145
2017-03-30T07:36:52.252Z,145
2017-03-30T07:37:32.850Z,140
2017-03-30T07:38:13.409Z,140
2017-03-30T07:38:53.975Z,140
2017-03-30T07:39:34.525Z,140
2017-03-30T07:40:15.118Z,140
2017-03-30T07:40:56.685Z,145
2017-03-30T07:41:37.258Z,150
2017-03-30T07:42:17.849Z,155
2017-03-30T07:42:58.403Z,160
2017-03-30T07:43:38.985Z,165
2017-03-30T07:44:19.607Z,175
2017-03-30T07:45:00.226Z,180
2017-03-30T07:45:40.794Z,190
2017-03-30T07:46:21.386Z,195
2017-03-30T07:47:01.961Z,200
2017-03-30T07:47:42.575Z,205
2017-03-30T07:48:23.184Z,205
2017-03-30T07:49:03.753Z,210
2017-03-30T07:49:46.929Z,215
2017-03-30T07:50:27.524Z,215
2017-03-30T07:51:08.101Z,215
2017-03-30T07:51:48.682Z,210
2017-03-30T07:52:29.278Z,210
2017-03-30T07:53:09.856Z,210
2017-03-30T07:53:50.476Z,215
2017-03-30T07:54:31.039Z,210
2017-03-30T07:55:11.620Z,205
2017-03-30T07:55:52.522Z,200
2017-03-30T07:56:33.122Z,200
2017-03-30T07:57:13.774Z,200
2017-03-30T07:57:54.429Z,205
2017-03-30T07:58:35.006Z,210
2017-03-30T07:59:15.561Z,215
2017-03-30T07:59:56.129Z,220
2017-03-30T08:00:36.748Z,220
2017-03-30T08:01:17.414Z,220
2017-03-30T08:01:57.987Z,220
2017-03-30T08:02:38.590Z,220
2017-03-30T08:03:19.172Z,220
2017-03-30T08:03:59.766Z,220
2017-03-30T08:04:40.385Z,220
2017-03-30T08:05:21.080Z,220
2017-03-30T08:06:01.676Z,220
2017-03-30T08:06:42.268Z,220
2017-03-30T08:07:22.849Z,215
2017-03-30T08:08:03.430Z,215
2017-03-30T08:08:44.015Z,210
2017-03-30T08:09:24.600Z,205
2017-03-30T08:10:05.210Z,195
2017-03-30T08:10:45.806Z,190
2017-03-30T08:11:26.396Z,180
2017-03-30T08:12:06.959Z,175
2017-03-30T08:12:47.518Z,170
2017-03-30T08:13:28.136Z,170
2017-03-30T08:14:08.722Z,170
2017-03-30T08:14:49.278Z,175
2017-03-30T08:15:29.870Z,175
2017-03-30T08:16:10.496Z,180
2017-03-30T08:16:51.079Z,180
2017-03-30T08:17:31.662Z,190
2017-03-30T08:18:12.235Z,210
2017-03-30T08:18:52.808Z,205
2017-03-30T08:19:33.403Z,200
2017-03-30T08:20:13.988Z,215
2017-03-30T08:20:54.581Z,210
2017-03-30T08:21:35.171Z,215
2017-03-30T08:22:15.783Z,210
2017-03-30T08:22:56.372Z,205
2017-03-30T08:23:36.937Z,205
2017-03-30T08:24:17.517Z,200
2017-03-30T08:24:58.113Z,195
2017-03-30T08:25:38.710Z,180
2017-03-30T08:26:20.275Z,200
2017-03-30T08:27:01.000Z,200
2017-03-30T08:27:41.595Z,185
2017-03-30T08:28:22.173Z,180
2017-03-30T08:29:02.805Z,195
2017-03-30T08:29:43.358Z,195
2017-03-30T08:30:23.967Z,195
2017-03-30T08:31:04.561Z,195
2017-03-30T08:31:45.243Z,195
2017-03-30T08:32:25.807Z,200
2017-03-30T08:33:08.425Z,200
2017-03-30T08:33:49.016Z,200
2017-03-30T08:34:30.616Z,200
2017-03-30T08:35:12.190Z,200
2017-03-30T08:35:52.779Z,200
2017-03-30T08:36:33.358Z,200
2017-03-30T08:37:13.926Z,200
2017-03-30T08:37:54.508Z,195
2017-03-30T08:38:35.131Z,200
2017-03-30T08:39:15.715Z,205
2017-03-30T08:39:58.307Z,215
2017-03-30T08:40:38.912Z,220
2017-03-30T08:41:19.511Z,220
2017-03-30T08:42:00.114Z,225
2017-03-30T08:42:40.696Z,230
2017-03-30T08:43:21.294Z,240
2017-03-30T08:44:01.897Z,245
2017-03-30T08:44:42.494Z,260
2017-03-30T08:45:23.047Z,270
2017-03-30T08:46:03.634Z,280
2017-03-30T08:46:44.207Z,285
2017-03-30T08:47:24.772Z,280
2017-03-30T08:48:05.347Z,270
2017-03-30T08:48:45.926Z,260
2017-03-30T08:49:26.498Z,270
2017-03-30T08:50:07.076Z,265
2017-03-30T08:50:47.659Z,270
2017-03-30T08:51:28.277Z,250
2017-03-30T08:52:08.877Z,240
2017-03-30T08:52:49.459Z,240
2017-03-30T08:53:30.023Z,240
2017-03-30T08:54:10.588Z,240
2017-03-30T08:54:51.186Z,245
2017-03-30T08:55:32.774Z,245
2017-03-30T08:56:13.382Z,265
2017-03-30T08:56:54.006Z,280
2017-03-30T08:57:34.593Z,275
2017-03-30T08:58:15.234Z,265
2017-03-30T08:58:55.853Z,260
2017-03-30T08:59:36.467Z,230
2017-03-30T09:00:17.041Z,235
2017-03-30T09:00:57.648Z,220
2017-03-30T09:01:39.222Z,220
2017-03-30T09:02:19.795Z,215
2017-03-30T09:03:00.425Z,210
2017-03-30T09:03:40.975Z,205
2017-03-30T09:04:21.567Z,200
2017-03-30T09:05:06.894Z,200
2017-03-30T09:05:47.460Z,200
2017-03-30T09:06:28.077Z,190
2017-03-30T09:07:08.675Z,185
2017-03-30T09:07:49.289Z,185
2017-03-30T09:08:29.867Z,185
2017-03-30T09:09:10.460Z,200
2017-03-30T09:09:51.154Z,205
2017-03-30T09:10:31.744Z,195
2017-03-30T09:11:12.292Z,205
2017-03-30T09:11:52.908Z,210
2017-03-30T09:12:33.503Z,215
2017-03-30T09:13:14.095Z,215
2017-03-30T09:13:54.741Z,215
2017-03-30T09:14:35.333Z,215
2017-03-30T09:15:16.043Z,215
2017-03-30T09:15:56.694Z,215
2017-03-30T09:16:37.376Z,215
2017-03-30T09:17:18.001Z,215
2017-03-30T09:17:58.649Z,215
2017-03-30T09:18:39.440Z,215
2017-03-30T09:19:20.004Z,215
2017-03-30T09:20:00.797Z,210
2017-03-30T09:20:41.473Z,210
2017-03-30T09:21:22.026Z,210
2017-03-30T09:22:02.660Z,210
2017-03-30T09:22:43.360Z,210
2017-03-30T09:23:23.947Z,210
2017-03-30T09:24:04.644Z,210
2017-03-30T09:24:50.076Z,210
2017-03-30T09:25:30.745Z,210
2017-03-30T09:26:11.420Z,205
2017-03-30T09:26:53.140Z,205
2017-03-30T09:27:33.872Z,205
2017-03-30T09:28:14.605Z,205
2017-03-30T09:28:57.320Z,205
2017-03-30T09:29:38.091Z,205
2017-03-30T09:30:19.911Z,205
2017-03-30T09:31:00.570Z,205
2017-03-30T09:31:41.236Z,205
2017-03-30T09:32:21.884Z,205
2017-03-30T09:33:02.645Z,210
2017-03-30T09:33:43.319Z,215
2017-03-30T09:34:23.986Z,210
2017-03-30T09:35:04.606Z,210
2017-03-30T09:35:45.322Z,210
2017-03-30T09:36:25.998Z,215
2017-03-30T09:37:06.701Z,215
2017-03-30T09:37:47.355Z,215
2017-03-30T09:38:28.076Z,215
2017-03-30T09:39:08.755Z,215
2017-03-30T09:39:49.826Z,215
2017-03-30T09:40:30.421Z,215
2017-03-30T09:41:11.106Z,215
2017-03-30T09:41:51.905Z,215
2017-03-30T09:42:32.617Z,215
2017-03-30T09:43:13.233Z,220
2017-03-30T09:43:53.917Z,220
2017-03-30T09:44:35.566Z,220
2017-03-30T09:45:16.236Z,220